Terminal Aerodrome Forecast
Issued by NWS Wilmington, OH

Current Version | Previous Version | Text Only | Print | Product List | Glossary Off
Versions: 1 2 3 4 5 6 7 8 9 10 11 12 13 14 15 16 17 18 19 20 21 22 23 24 25 26 27 28 29 30

000
FTUS41 KILN 200800 AAB
TAFCVG
TAF AMD
KCVG 200820Z 2008/2112 22005KT 4SM BR BKN100
     FM201100 22005KT 2SM BR BKN012
     FM201400 27007KT P6SM SCT025
     FM201700 29010KT P6SM SCT040
     FM210000 27006KT P6SM SCT100 BKN250
     FM210600 22005KT P6SM VCTS BKN040CB=

USA.gov is the U.S. government's official web portal to all federal, state and local government web resources and services.